Aviation Digital Data Service (ADDS)

Output produced by METARs form (1824 UTC 16 August 2018)
found at http://www.aviationweather.gov/adds/metars/
 
OTBD 161800Z 36004KT CAVOK 35/23 Q0999 NOSIG
TAF OTBD 152301Z 1600/1706 28007KT 9000 NSC 
     BECMG 1604/1506 34012KT 
     TEMPO 1608/1613 04014KT 
     BECMG 1619/1621 28007KT
       
OTBH 161756Z 02006KT 9000 HZ CLR 37/05 A2953 RMK AO2A SLP000 T03730053 10450 20373 52015
TAF OTBH 161500Z 1615/1721 34009KT 9000 HZ SKC QNH2947INS 
     BECMG 1705/1706 31010G20KT 8000 HZ SKC QNH2954INS 
     BECMG 1707/1708 34012G18KT 9000 HZ SKC QNH2954INS 
     BECMG 1717/1718 34006KT 9000 HZ SKC QNH2951INS TX44/1711Z TN27/1701Z